createdAt,value
2023-08-12T00:00:22.616Z,16.45
2023-08-12T00:01:26.314Z,16.47
2023-08-12T00:02:28.707Z,16.47
2023-08-12T00:03:31.098Z,16.46
2023-08-12T00:04:33.077Z,16.46
2023-08-12T00:05:36.995Z,16.49
2023-08-12T00:06:38.884Z,16.45
2023-08-12T00:07:44.130Z,16.45
2023-08-12T00:08:46.104Z,16.45
2023-08-12T00:09:48.021Z,16.44
2023-08-12T00:10:50.140Z,16.43
2023-08-12T00:11:52.158Z,16.44
2023-08-12T00:12:54.136Z,16.44
2023-08-12T00:13:56.062Z,16.46
2023-08-12T00:14:58.057Z,16.44
2023-08-12T00:16:00.166Z,16.46
2023-08-12T00:17:02.185Z,16.46
2023-08-12T00:18:08.020Z,16.46
2023-08-12T00:19:10.070Z,16.46
2023-08-12T00:20:13.771Z,16.46
2023-08-12T00:21:16.540Z,16.46
2023-08-12T00:22:18.676Z,16.46
2023-08-12T00:23:20.920Z,16.46
2023-08-12T00:24:22.962Z,16.46
2023-08-12T00:25:25.008Z,16.47
2023-08-12T00:26:28.189Z,16.47
2023-08-12T00:27:30.125Z,16.50
2023-08-12T00:28:32.205Z,16.51
2023-08-12T00:29:34.574Z,16.49
2023-08-12T00:30:36.553Z,16.45
2023-08-12T00:31:38.846Z,16.42
2023-08-12T00:32:42.251Z,16.45
2023-08-12T00:33:44.238Z,16.45
2023-08-12T00:34:46.145Z,16.42
2023-08-12T00:35:48.057Z,16.39
2023-08-12T00:36:50.084Z,16.41
2023-08-12T00:37:52.336Z,16.44
2023-08-12T00:38:54.496Z,16.44
2023-08-12T00:39:56.512Z,16.46
2023-08-12T00:40:59.439Z,16.47
2023-08-12T00:42:01.502Z,16.49
2023-08-12T00:43:04.733Z,16.47
2023-08-12T00:44:06.787Z,16.46
2023-08-12T00:45:14.371Z,16.48
2023-08-12T00:46:16.702Z,16.50
2023-08-12T00:47:18.946Z,16.48
2023-08-12T00:48:21.031Z,16.49
2023-08-12T00:49:25.320Z,16.48
2023-08-12T00:50:27.450Z,16.48
2023-08-12T00:51:29.825Z,16.48
2023-08-12T00:52:31.743Z,16.46
2023-08-12T00:53:33.679Z,16.45
2023-08-12T00:54:35.744Z,16.43
2023-08-12T00:55:37.756Z,16.43
2023-08-12T00:56:39.811Z,16.44
2023-08-12T00:57:41.934Z,16.45
2023-08-12T00:58:44.766Z,16.46
2023-08-12T00:59:46.810Z,16.46
2023-08-12T01:00:48.818Z,16.45
2023-08-12T01:01:51.604Z,16.47
2023-08-12T01:02:55.325Z,16.49
2023-08-12T01:03:58.569Z,16.48
2023-08-12T01:05:00.790Z,16.47
2023-08-12T01:06:04.061Z,16.46
2023-08-12T01:07:05.989Z,16.45
2023-08-12T01:08:08.669Z,16.33
2023-08-12T01:09:11.137Z,16.32
2023-08-12T01:10:16.712Z,16.24
2023-08-12T01:11:37.099Z,16.25
2023-08-12T01:12:46.215Z,16.28
2023-08-12T01:14:00.238Z,16.30
2023-08-12T01:15:18.876Z,16.33
2023-08-12T01:16:23.437Z,16.34
2023-08-12T01:17:30.274Z,16.36
2023-08-12T01:18:33.100Z,16.37
2023-08-12T01:19:37.898Z,16.38
2023-08-12T01:20:40.434Z,16.39
2023-08-12T01:21:47.437Z,16.39
2023-08-12T01:22:51.511Z,16.40
2023-08-12T01:23:53.792Z,16.39
2023-08-12T01:24:56.578Z,16.39
2023-08-12T01:25:58.520Z,16.39
2023-08-12T01:27:00.783Z,16.41
2023-08-12T01:28:02.606Z,16.39
2023-08-12T01:29:04.968Z,16.37
2023-08-12T01:30:07.485Z,16.36
2023-08-12T01:31:16.559Z,16.38
2023-08-12T01:32:32.567Z,16.39
2023-08-12T01:33:43.651Z,16.40
2023-08-12T01:34:57.995Z,16.40
2023-08-12T01:36:14.601Z,16.39
2023-08-12T01:37:26.078Z,16.40
2023-08-12T01:38:29.816Z,16.40
2023-08-12T01:39:34.929Z,16.36
2023-08-12T01:40:41.405Z,16.32
2023-08-12T01:41:43.396Z,16.32
2023-08-12T01:42:47.332Z,16.32
2023-08-12T01:43:49.768Z,16.33
2023-08-12T01:44:51.892Z,16.31
2023-08-12T01:45:57.057Z,16.31
2023-08-12T01:47:00.924Z,16.33
2023-08-12T01:48:03.886Z,16.33
2023-08-12T01:49:06.015Z,16.36
2023-08-12T01:50:08.062Z,16.35
2023-08-12T01:51:10.065Z,16.37
2023-08-12T01:52:12.451Z,16.36
2023-08-12T01:53:14.273Z,16.35
2023-08-12T01:54:16.232Z,16.31
2023-08-12T01:55:18.143Z,16.29
2023-08-12T01:56:20.062Z,16.27
2023-08-12T01:57:22.223Z,16.27
2023-08-12T01:58:24.116Z,16.23
2023-08-12T01:59:26.101Z,16.23
2023-08-12T02:00:28.115Z,16.25
2023-08-12T02:01:30.196Z,16.20
2023-08-12T02:02:32.274Z,16.22
2023-08-12T02:03:34.492Z,16.19
2023-08-12T02:04:38.504Z,16.20
2023-08-12T02:05:40.445Z,16.22
2023-08-12T02:06:42.451Z,16.23
2023-08-12T02:07:44.817Z,16.25
2023-08-12T02:08:46.778Z,16.24
2023-08-12T02:09:48.773Z,16.26
2023-08-12T02:10:50.650Z,16.26
2023-08-12T02:11:52.588Z,16.28
2023-08-12T02:12:54.529Z,16.27
2023-08-12T02:13:56.658Z,16.27
2023-08-12T02:14:58.654Z,16.26
2023-08-12T02:16:00.586Z,16.25
2023-08-12T02:17:03.056Z,16.25
2023-08-12T02:18:05.158Z,16.26
2023-08-12T02:19:07.147Z,16.25
2023-08-12T02:20:09.277Z,16.24
2023-08-12T02:21:11.260Z,16.20
2023-08-12T02:22:13.227Z,16.19
2023-08-12T02:23:15.595Z,16.17
2023-08-12T02:24:17.571Z,16.15
2023-08-12T02:25:19.627Z,16.10
2023-08-12T02:26:21.767Z,16.07
2023-08-12T02:27:23.745Z,16.07
2023-08-12T02:28:25.799Z,16.09
2023-08-12T02:29:28.095Z,16.10
2023-08-12T02:30:30.414Z,16.08
2023-08-12T02:31:32.468Z,16.10
2023-08-12T02:32:34.579Z,16.10
2023-08-12T02:33:36.554Z,16.12
2023-08-12T02:34:38.568Z,16.11
2023-08-12T02:35:40.514Z,16.10
2023-08-12T02:36:42.413Z,16.10
2023-08-12T02:37:44.292Z,16.09
2023-08-12T02:38:46.193Z,16.08
2023-08-12T02:39:48.637Z,16.08
2023-08-12T02:40:51.430Z,16.06
2023-08-12T02:41:53.485Z,16.04
2023-08-12T02:42:55.411Z,16.03
2023-08-12T02:43:57.413Z,16.02
2023-08-12T02:45:01.280Z,15.99
2023-08-12T02:46:03.500Z,15.98
2023-08-12T02:47:05.653Z,16.02
2023-08-12T02:48:07.996Z,15.99
2023-08-12T02:49:09.860Z,16.00
2023-08-12T02:50:11.966Z,15.99
2023-08-12T02:51:15.082Z,15.99
2023-08-12T02:52:16.977Z,15.98
2023-08-12T02:53:18.920Z,15.97
2023-08-12T02:54:20.804Z,15.93
2023-08-12T02:55:22.760Z,15.92
2023-08-12T02:56:24.825Z,15.90
2023-08-12T02:57:27.054Z,15.86
2023-08-12T02:58:29.096Z,15.88
2023-08-12T02:59:31.544Z,15.89
2023-08-12T03:00:33.533Z,15.90
2023-08-12T03:01:35.540Z,15.90
2023-08-12T03:02:37.586Z,15.91
2023-08-12T03:03:39.534Z,15.88
2023-08-12T03:04:41.442Z,15.89
2023-08-12T03:05:46.717Z,15.88
2023-08-12T03:06:48.663Z,15.89
2023-08-12T03:07:52.970Z,15.85
2023-08-12T03:08:54.962Z,15.85
2023-08-12T03:09:56.899Z,15.85
2023-08-12T03:11:03.495Z,15.86
2023-08-12T03:12:06.105Z,15.82
2023-08-12T03:13:08.160Z,15.80
2023-08-12T03:14:10.853Z,15.79
2023-08-12T03:15:12.977Z,15.78
2023-08-12T03:16:15.609Z,15.79
2023-08-12T03:17:17.781Z,15.79
2023-08-12T03:18:19.692Z,15.77
2023-08-12T03:19:21.554Z,15.72
2023-08-12T03:20:24.338Z,15.70
2023-08-12T03:21:26.293Z,15.71
2023-08-12T03:22:31.438Z,15.68
2023-08-12T03:23:33.408Z,15.64
2023-08-12T03:24:35.490Z,15.65
2023-08-12T03:25:37.364Z,15.67
2023-08-12T03:26:39.295Z,15.67
2023-08-12T03:27:41.749Z,15.72
2023-08-12T03:28:43.615Z,15.71
2023-08-12T03:29:45.557Z,15.73
2023-08-12T03:30:54.622Z,15.74
2023-08-12T03:31:56.874Z,15.72
2023-08-12T03:32:59.061Z,15.70
2023-08-12T03:34:02.039Z,15.71
2023-08-12T03:35:05.251Z,15.74
2023-08-12T03:36:07.726Z,15.71
2023-08-12T03:37:10.109Z,15.69
2023-08-12T03:38:12.164Z,15.67
2023-08-12T03:39:14.499Z,15.65
2023-08-12T03:40:16.458Z,15.67
2023-08-12T03:41:18.430Z,15.67
2023-08-12T03:42:20.536Z,15.66
2023-08-12T03:43:22.451Z,15.65
2023-08-12T03:44:24.450Z,15.63
2023-08-12T03:45:26.513Z,15.65
2023-08-12T03:46:28.510Z,15.66
2023-08-12T03:47:30.490Z,15.65
2023-08-12T03:48:33.112Z,15.65
2023-08-12T03:49:35.076Z,15.65
2023-08-12T03:50:38.508Z,15.67
2023-08-12T03:51:40.759Z,15.69
2023-08-12T03:52:42.745Z,15.68
2023-08-12T03:53:44.821Z,15.66
2023-08-12T03:54:46.710Z,15.64
2023-08-12T03:55:48.623Z,15.64
2023-08-12T03:56:50.691Z,15.61
2023-08-12T03:57:53.352Z,15.61
2023-08-12T03:58:55.294Z,15.60
2023-08-12T03:59:57.337Z,15.62
2023-08-12T04:00:59.265Z,15.63
2023-08-12T04:02:01.449Z,15.64
2023-08-12T04:03:03.794Z,15.64
2023-08-12T04:04:06.118Z,15.65
2023-08-12T04:05:08.461Z,15.64
2023-08-12T04:06:10.254Z,15.65
2023-08-12T04:07:12.423Z,15.65
2023-08-12T04:08:14.694Z,15.64
2023-08-12T04:09:16.698Z,15.65
2023-08-12T04:10:18.728Z,15.64
2023-08-12T04:11:20.714Z,15.60
2023-08-12T04:12:22.803Z,15.57
2023-08-12T04:13:24.777Z,15.54
2023-08-12T04:14:26.785Z,15.54
2023-08-12T04:15:29.154Z,15.54
2023-08-12T04:16:31.039Z,15.56
2023-08-12T04:17:33.772Z,15.55
2023-08-12T04:18:35.856Z,15.56
2023-08-12T04:19:37.771Z,15.56
2023-08-12T04:20:40.453Z,15.54
2023-08-12T04:21:42.473Z,15.53
2023-08-12T04:22:45.835Z,15.53
2023-08-12T04:23:49.037Z,15.50
2023-08-12T04:24:50.997Z,15.47
2023-08-12T04:25:55.577Z,15.48
2023-08-12T04:26:57.515Z,15.49
2023-08-12T04:27:59.757Z,15.47
2023-08-12T04:29:01.702Z,15.48
2023-08-12T04:30:03.955Z,15.50
2023-08-12T04:31:11.564Z,15.50
2023-08-12T04:32:13.682Z,15.53
2023-08-12T04:33:15.818Z,15.53
2023-08-12T04:34:18.105Z,15.51
2023-08-12T04:35:19.946Z,15.50
2023-08-12T04:36:22.210Z,15.48
2023-08-12T04:37:25.534Z,15.46
2023-08-12T04:38:28.815Z,15.43
2023-08-12T04:39:30.826Z,15.40
2023-08-12T04:40:34.067Z,15.40
2023-08-12T04:41:35.991Z,15.40
2023-08-12T04:42:37.958Z,15.36
2023-08-12T04:43:39.899Z,15.36
2023-08-12T04:44:41.858Z,15.40
2023-08-12T04:45:47.907Z,15.42
2023-08-12T04:46:49.792Z,15.43
2023-08-12T04:47:51.817Z,15.43
2023-08-12T04:48:53.769Z,15.42
2023-08-12T04:49:55.959Z,15.42
2023-08-12T04:51:01.509Z,15.45
2023-08-12T04:52:03.457Z,15.43
2023-08-12T04:53:06.904Z,15.43
2023-08-12T04:54:09.260Z,15.42
2023-08-12T04:55:14.265Z,15.43
2023-08-12T04:56:16.350Z,15.45
2023-08-12T04:57:18.307Z,15.46
2023-08-12T04:58:20.195Z,15.45
2023-08-12T04:59:22.167Z,15.45
2023-08-12T05:00:24.863Z,15.46
2023-08-12T05:01:26.999Z,15.46
2023-08-12T05:02:29.091Z,15.48
2023-08-12T05:03:31.232Z,15.47
2023-08-12T05:04:33.205Z,15.46
2023-08-12T05:05:35.120Z,15.45
2023-08-12T05:06:37.191Z,15.45
2023-08-12T05:07:41.081Z,15.45
2023-08-12T05:08:43.266Z,15.44
2023-08-12T05:09:45.426Z,15.42
2023-08-12T05:10:51.064Z,15.40
2023-08-12T05:11:53.315Z,15.40
2023-08-12T05:12:56.231Z,15.40
2023-08-12T05:13:58.177Z,15.38
2023-08-12T05:15:00.290Z,15.37
2023-08-12T05:16:02.392Z,15.38
2023-08-12T05:17:04.846Z,15.40
2023-08-12T05:18:07.371Z,15.42
2023-08-12T05:19:09.274Z,15.43
2023-08-12T05:20:12.206Z,15.46
2023-08-12T05:21:14.278Z,15.49
2023-08-12T05:22:17.347Z,15.51
2023-08-12T05:23:19.332Z,15.53
2023-08-12T05:24:25.977Z,15.53
2023-08-12T05:25:27.950Z,15.54
2023-08-12T05:27:49.145Z,15.49
2023-08-12T05:28:51.452Z,15.46
2023-08-12T05:29:53.282Z,15.47
2023-08-12T05:30:56.700Z,15.45
2023-08-12T05:31:58.661Z,15.45
2023-08-12T05:33:00.719Z,15.45
2023-08-12T05:34:02.751Z,15.47
2023-08-12T05:35:04.891Z,15.48
2023-08-12T05:36:06.861Z,15.48
2023-08-12T05:37:09.340Z,15.50
2023-08-12T05:38:11.657Z,15.48
2023-08-12T05:39:13.431Z,15.48
2023-08-12T05:40:15.467Z,15.50
2023-08-12T05:41:17.425Z,15.54
2023-08-12T05:42:19.430Z,15.56
2023-08-12T05:43:21.465Z,15.55
2023-08-12T05:44:23.392Z,15.56
2023-08-12T05:45:28.460Z,15.57
2023-08-12T05:46:30.409Z,15.58
2023-08-12T05:47:33.856Z,15.58
2023-08-12T05:48:35.888Z,15.61
2023-08-12T05:49:37.920Z,15.63
2023-08-12T05:50:39.871Z,15.61
2023-08-12T05:51:42.708Z,15.60
2023-08-12T05:52:45.452Z,15.62
2023-08-12T05:53:47.634Z,15.62
2023-08-12T05:54:49.535Z,15.63
2023-08-12T05:55:51.589Z,15.61
2023-08-12T05:56:53.612Z,15.60
2023-08-12T05:57:55.526Z,15.60
2023-08-12T05:58:57.472Z,15.61
2023-08-12T05:59:59.515Z,15.60
2023-08-12T06:01:01.760Z,15.63
2023-08-12T06:02:03.679Z,15.60
2023-08-12T06:03:05.718Z,15.60
2023-08-12T06:04:07.646Z,15.63
2023-08-12T06:05:10.008Z,15.66
2023-08-12T06:06:11.825Z,15.70
2023-08-12T06:07:13.833Z,15.74
2023-08-12T06:08:15.941Z,15.79
2023-08-12T06:09:17.940Z,15.82
2023-08-12T06:10:19.860Z,15.89
2023-08-12T06:11:21.981Z,15.89
2023-08-12T06:12:23.952Z,15.92
2023-08-12T06:13:25.841Z,15.94
2023-08-12T06:14:27.691Z,15.97
2023-08-12T06:15:29.789Z,16.01
2023-08-12T06:16:31.760Z,16.04
2023-08-12T06:17:33.720Z,16.07
2023-08-12T06:18:35.652Z,16.11
2023-08-12T06:19:37.645Z,16.11
2023-08-12T06:20:39.584Z,16.14
2023-08-12T06:21:41.685Z,16.16
2023-08-12T06:22:43.643Z,16.20
2023-08-12T06:23:45.644Z,16.24
2023-08-12T06:24:47.574Z,16.27
2023-08-12T06:25:49.628Z,16.32
2023-08-12T06:26:51.755Z,16.36
2023-08-12T06:27:53.784Z,16.42
2023-08-12T06:28:55.776Z,16.46
2023-08-12T06:29:57.630Z,16.51
2023-08-12T06:30:59.868Z,16.55
2023-08-12T06:32:01.826Z,16.58
2023-08-12T06:33:03.895Z,16.62
2023-08-12T06:34:05.967Z,16.65
2023-08-12T06:35:08.362Z,16.69
2023-08-12T06:36:10.078Z,16.72
2023-08-12T06:37:11.982Z,16.75
2023-08-12T06:38:14.889Z,16.78
2023-08-12T06:39:17.016Z,16.83
2023-08-12T06:40:18.973Z,16.86
2023-08-12T06:41:20.858Z,16.89
2023-08-12T06:42:24.149Z,16.92
2023-08-12T06:43:28.425Z,16.95
2023-08-12T06:44:32.033Z,17.00
2023-08-12T06:45:34.202Z,17.04
2023-08-12T06:46:36.181Z,17.08
2023-08-12T06:47:38.650Z,17.10
2023-08-12T06:48:40.638Z,17.15
2023-08-12T06:49:42.523Z,17.18
2023-08-12T06:50:45.097Z,17.20
2023-08-12T06:51:47.132Z,17.24
2023-08-12T06:52:49.054Z,17.27
2023-08-12T06:53:50.974Z,17.29
2023-08-12T06:54:52.949Z,17.32
2023-08-12T06:55:55.588Z,17.37
2023-08-12T06:56:57.595Z,17.40
2023-08-12T06:57:59.470Z,17.44
2023-08-12T06:59:01.384Z,17.48
2023-08-12T07:00:04.380Z,17.51
2023-08-12T07:01:06.440Z,17.55
2023-08-12T07:02:08.933Z,17.59
2023-08-12T07:03:11.091Z,17.64
2023-08-12T07:04:12.977Z,17.67
2023-08-12T07:05:15.114Z,17.71
2023-08-12T07:06:17.074Z,17.73
2023-08-12T07:07:19.089Z,17.76
2023-08-12T07:08:21.040Z,17.79
2023-08-12T07:09:23.018Z,17.83
2023-08-12T07:10:25.772Z,17.86
2023-08-12T07:11:28.725Z,17.89
2023-08-12T07:12:30.790Z,17.93
2023-08-12T07:13:32.938Z,17.97
2023-08-12T07:14:34.914Z,17.99
2023-08-12T07:15:37.207Z,18.03
2023-08-12T07:16:39.052Z,18.07
2023-08-12T07:17:41.329Z,18.08
2023-08-12T07:18:43.204Z,18.12
2023-08-12T07:19:45.182Z,18.14
2023-08-12T07:20:47.207Z,18.18
2023-08-12T07:21:49.170Z,18.23
2023-08-12T07:22:51.229Z,18.27
2023-08-12T07:24:03.231Z,18.31
2023-08-12T07:25:06.598Z,18.35
2023-08-12T07:26:08.766Z,18.40
2023-08-12T07:27:10.728Z,18.43
2023-08-12T07:28:13.270Z,18.47
2023-08-12T07:29:15.367Z,18.49
2023-08-12T07:30:17.356Z,18.51
2023-08-12T07:31:19.611Z,18.54
2023-08-12T07:32:22.790Z,18.57
2023-08-12T07:33:26.036Z,18.60
2023-08-12T07:34:30.242Z,18.62
2023-08-12T07:35:33.569Z,18.67
2023-08-12T07:36:35.516Z,18.71
2023-08-12T07:37:37.446Z,18.75
2023-08-12T07:38:39.680Z,18.77
2023-08-12T07:39:41.789Z,18.81
2023-08-12T07:40:43.756Z,18.86
2023-08-12T07:41:45.678Z,18.90
2023-08-12T07:42:47.581Z,18.94
2023-08-12T07:43:49.528Z,18.99
2023-08-12T07:44:52.286Z,19.02
2023-08-12T07:46:07.747Z,19.06
2023-08-12T07:47:12.112Z,19.10
2023-08-12T07:48:14.345Z,19.14
2023-08-12T07:49:17.942Z,19.17
2023-08-12T07:50:20.133Z,19.20
2023-08-12T07:51:22.071Z,19.24
2023-08-12T07:52:24.058Z,19.28
2023-08-12T07:53:27.158Z,19.31
2023-08-12T07:54:29.215Z,19.36
2023-08-12T07:55:31.198Z,19.39
2023-08-12T07:56:33.100Z,19.46
2023-08-12T07:57:35.244Z,19.51
2023-08-12T07:58:37.228Z,19.55
2023-08-12T07:59:39.272Z,19.58
2023-08-12T08:00:41.198Z,19.61
2023-08-12T08:01:43.164Z,19.65
2023-08-12T08:02:45.094Z,19.68
2023-08-12T08:03:47.498Z,19.73
2023-08-12T08:04:52.463Z,19.76
2023-08-12T08:05:54.735Z,19.82
2023-08-12T08:06:56.616Z,19.83
2023-08-12T08:07:58.493Z,19.88
2023-08-12T08:09:02.025Z,19.90
2023-08-12T08:10:04.614Z,19.95
2023-08-12T08:11:06.694Z,19.99
2023-08-12T08:12:10.229Z,20.05
2023-08-12T08:13:13.296Z,20.08
2023-08-12T08:14:15.235Z,20.12
2023-08-12T08:15:17.724Z,20.15
2023-08-12T08:16:19.541Z,20.16
2023-08-12T08:17:21.395Z,20.21
2023-08-12T08:18:23.338Z,20.23
2023-08-12T08:19:29.883Z,20.24
2023-08-12T08:20:32.872Z,20.30
2023-08-12T08:21:34.643Z,20.33
2023-08-12T08:22:36.479Z,20.38
2023-08-12T08:23:38.458Z,20.41
2023-08-12T08:24:40.347Z,20.44
2023-08-12T08:25:42.489Z,20.47
2023-08-12T08:26:46.908Z,20.52
2023-08-12T08:27:48.693Z,20.56
2023-08-12T08:28:50.494Z,20.62
2023-08-12T08:29:52.213Z,20.65
2023-08-12T08:30:53.966Z,20.67
2023-08-12T08:31:55.732Z,20.71
2023-08-12T08:32:57.762Z,20.74
2023-08-12T08:33:59.810Z,20.81
2023-08-12T08:35:01.552Z,20.85
2023-08-12T08:36:03.507Z,20.89
2023-08-12T08:37:05.404Z,20.94
2023-08-12T08:38:08.905Z,20.98
2023-08-12T08:39:10.797Z,21.04
2023-08-12T08:40:13.318Z,21.07
2023-08-12T08:41:18.232Z,21.08
2023-08-12T08:42:22.072Z,21.11
2023-08-12T08:43:24.639Z,21.16
2023-08-12T08:44:33.403Z,21.19
2023-08-12T08:45:35.854Z,21.23
2023-08-12T08:46:38.090Z,21.25
2023-08-12T08:47:42.474Z,21.30
2023-08-12T08:48:44.578Z,21.33
2023-08-12T08:49:46.435Z,21.35
2023-08-12T08:50:49.395Z,21.40
2023-08-12T08:51:52.286Z,21.43
2023-08-12T08:52:55.072Z,21.47
2023-08-12T08:53:58.504Z,21.52
2023-08-12T08:55:08.123Z,21.54
2023-08-12T08:56:16.069Z,21.58
2023-08-12T08:57:24.394Z,21.65
2023-08-12T08:58:30.156Z,21.68
2023-08-12T08:59:32.324Z,21.72
2023-08-12T09:00:34.351Z,21.75
2023-08-12T09:01:36.565Z,21.83
2023-08-12T09:02:38.824Z,21.87
2023-08-12T09:03:42.169Z,21.91
2023-08-12T09:04:45.315Z,21.94
2023-08-12T09:05:47.655Z,21.99
2023-08-12T09:06:51.004Z,22.02
2023-08-12T09:07:53.318Z,22.05
2023-08-12T09:08:55.561Z,22.09
2023-08-12T09:09:57.954Z,22.10
2023-08-12T09:11:03.789Z,22.12
2023-08-12T09:12:05.995Z,22.14
2023-08-12T09:13:08.331Z,22.17
2023-08-12T09:14:10.142Z,22.21
2023-08-12T09:15:11.937Z,22.26
2023-08-12T09:16:13.857Z,22.32
2023-08-12T09:17:16.404Z,22.36
2023-08-12T09:18:18.724Z,22.40
2023-08-12T09:19:20.523Z,22.46
2023-08-12T09:20:22.515Z,22.50
2023-08-12T09:21:24.648Z,22.54
2023-08-12T09:22:27.191Z,22.60
2023-08-12T09:23:29.002Z,22.65
2023-08-12T09:24:31.195Z,22.69
2023-08-12T09:25:33.508Z,22.71
2023-08-12T09:26:35.813Z,22.78
2023-08-12T09:27:39.260Z,22.86
2023-08-12T09:28:41.930Z,22.89
2023-08-12T09:29:43.899Z,22.91
2023-08-12T09:30:55.319Z,22.96
2023-08-12T09:32:19.303Z,23.02
2023-08-12T09:33:30.114Z,23.07
2023-08-12T09:34:32.560Z,23.11
2023-08-12T09:35:36.640Z,23.16
2023-08-12T09:36:38.603Z,23.17
2023-08-12T09:37:40.592Z,23.21
2023-08-12T09:38:42.871Z,23.26
2023-08-12T09:39:44.871Z,23.30
2023-08-12T09:40:48.814Z,23.37
2023-08-12T09:41:52.429Z,23.43
2023-08-12T09:42:54.373Z,23.47
2023-08-12T09:43:58.456Z,23.53
2023-08-12T09:45:00.505Z,23.59
2023-08-12T09:46:04.378Z,23.63
2023-08-12T09:47:09.772Z,23.67
2023-08-12T09:48:12.472Z,23.75
2023-08-12T09:49:15.389Z,23.85
2023-08-12T09:50:17.636Z,23.91
2023-08-12T09:51:19.932Z,23.98
2023-08-12T09:52:23.282Z,24.05
2023-08-12T09:53:25.048Z,24.12
2023-08-12T09:54:29.786Z,24.14
2023-08-12T09:55:33.175Z,24.19
2023-08-12T09:56:37.757Z,24.28
2023-08-12T09:57:42.230Z,24.30
2023-08-12T09:58:45.427Z,24.34
2023-08-12T09:59:47.964Z,24.36
2023-08-12T10:00:50.303Z,24.42
2023-08-12T10:01:53.837Z,24.42
2023-08-12T10:02:56.418Z,24.45
2023-08-12T10:03:58.232Z,24.49
2023-08-12T10:05:01.052Z,24.55
2023-08-12T10:06:05.691Z,24.61
2023-08-12T10:07:07.977Z,24.69
2023-08-12T10:08:11.216Z,24.74
2023-08-12T10:09:13.544Z,24.83
2023-08-12T10:10:18.660Z,24.92
2023-08-12T10:11:20.516Z,25.02
2023-08-12T10:12:23.043Z,25.09
2023-08-12T10:13:24.886Z,25.15
2023-08-12T10:14:27.322Z,25.24
2023-08-12T10:15:29.552Z,25.31
2023-08-12T10:16:31.521Z,25.43
2023-08-12T10:17:43.090Z,25.49
2023-08-12T10:18:47.959Z,25.61
2023-08-12T10:19:50.122Z,25.69
2023-08-12T10:20:52.938Z,25.79
2023-08-12T10:21:58.037Z,25.86
2023-08-12T10:23:01.014Z,26.08
2023-08-12T10:24:04.442Z,26.15
2023-08-12T10:25:09.348Z,26.19
2023-08-12T10:26:11.170Z,26.22
2023-08-12T10:27:14.237Z,26.27
2023-08-12T10:28:16.420Z,26.32
2023-08-12T10:29:18.506Z,26.42
2023-08-12T10:30:21.918Z,26.49
2023-08-12T10:31:23.872Z,26.57
2023-08-12T10:32:28.714Z,26.63
2023-08-12T10:33:30.550Z,26.72
2023-08-12T10:34:32.940Z,26.79
2023-08-12T10:35:48.169Z,26.85
2023-08-12T10:37:02.004Z,26.93
2023-08-12T10:38:06.872Z,27.05
2023-08-12T10:39:11.757Z,27.12
2023-08-12T10:40:23.819Z,27.17
2023-08-12T10:41:27.030Z,27.24
2023-08-12T10:42:42.566Z,27.30
2023-08-12T10:44:05.253Z,27.39
2023-08-12T10:45:07.169Z,27.47
2023-08-12T10:46:22.599Z,27.56
2023-08-12T10:47:24.383Z,27.65
2023-08-12T10:48:26.829Z,27.76
2023-08-12T10:49:28.685Z,27.87
2023-08-12T10:50:32.460Z,27.97
2023-08-12T10:51:46.112Z,28.06
2023-08-12T10:52:48.599Z,28.11
2023-08-12T10:53:51.362Z,28.18
2023-08-12T10:54:53.856Z,28.28
2023-08-12T10:55:56.179Z,28.38
2023-08-12T10:57:07.280Z,28.49
2023-08-12T10:58:10.194Z,28.57
2023-08-12T10:59:31.906Z,28.63
2023-08-12T11:00:33.752Z,28.71
2023-08-12T11:01:36.317Z,28.77
2023-08-12T11:02:39.039Z,28.82
2023-08-12T11:03:43.865Z,28.92
2023-08-12T11:04:49.438Z,29.01
2023-08-12T11:05:51.990Z,29.13
2023-08-12T11:06:53.881Z,29.20
2023-08-12T11:07:59.919Z,29.27
2023-08-12T11:09:01.836Z,29.34
2023-08-12T11:10:10.890Z,29.39
2023-08-12T11:11:23.658Z,29.53
2023-08-12T11:12:32.453Z,29.60
2023-08-12T11:13:47.610Z,29.64
2023-08-12T11:14:50.921Z,29.68
2023-08-12T11:15:52.738Z,29.70
2023-08-12T11:16:54.758Z,29.76
2023-08-12T11:17:56.627Z,29.82
2023-08-12T11:18:59.023Z,29.87
2023-08-12T11:20:01.967Z,29.91
2023-08-12T11:21:04.744Z,29.99
2023-08-12T11:22:06.755Z,30.08
2023-08-12T11:23:09.349Z,30.18
2023-08-12T11:24:11.739Z,30.24
2023-08-12T11:25:14.756Z,30.31
2023-08-12T11:26:16.841Z,30.36
2023-08-12T11:27:19.357Z,30.40
2023-08-12T11:28:21.372Z,30.44
2023-08-12T11:29:23.045Z,30.56
2023-08-12T11:30:25.792Z,30.64
2023-08-12T11:31:29.286Z,30.70
2023-08-12T11:32:31.141Z,30.73
2023-08-12T11:33:33.091Z,30.78
2023-08-12T11:34:35.122Z,30.81
2023-08-12T11:35:38.841Z,30.85
2023-08-12T11:36:40.657Z,30.93
2023-08-12T11:37:43.206Z,31.02
2023-08-12T11:38:45.208Z,31.05
2023-08-12T11:39:46.996Z,31.11
2023-08-12T11:40:48.857Z,31.19
2023-08-12T11:41:51.744Z,31.19
2023-08-12T11:42:53.937Z,31.21
2023-08-12T11:43:55.706Z,31.25
2023-08-12T11:44:57.692Z,31.30
2023-08-12T11:46:00.196Z,31.33
2023-08-12T11:47:02.234Z,31.31
2023-08-12T11:48:05.628Z,31.32
2023-08-12T11:49:07.396Z,31.32
2023-08-12T11:50:10.807Z,31.35
2023-08-12T11:51:13.206Z,31.38
2023-08-12T11:52:15.908Z,31.42
2023-08-12T11:53:18.489Z,31.50
2023-08-12T11:54:20.214Z,31.55
2023-08-12T11:55:22.348Z,31.57
2023-08-12T11:56:24.192Z,31.60
2023-08-12T11:57:27.489Z,31.67
2023-08-12T11:58:47.413Z,31.70
2023-08-12T12:00:01.201Z,31.68
2023-08-12T12:01:03.730Z,31.72
2023-08-12T12:02:05.764Z,31.71
2023-08-12T12:03:07.918Z,31.75
2023-08-12T12:04:11.850Z,31.74
2023-08-12T12:05:14.458Z,31.79
2023-08-12T12:06:16.361Z,31.82
2023-08-12T12:07:20.898Z,31.90
2023-08-12T12:08:23.761Z,31.98
2023-08-12T12:09:27.398Z,32.00
2023-08-12T12:10:34.838Z,32.05
2023-08-12T12:11:41.066Z,32.09
2023-08-12T12:12:43.076Z,32.16
2023-08-12T12:13:48.527Z,32.23
2023-08-12T12:14:51.932Z,32.22
2023-08-12T12:15:54.107Z,32.25
2023-08-12T12:16:56.203Z,32.31
2023-08-12T12:17:57.999Z,32.34
2023-08-12T12:19:00.092Z,32.35
2023-08-12T12:20:02.439Z,32.42
2023-08-12T12:21:04.343Z,32.46
2023-08-12T12:22:06.825Z,32.52
2023-08-12T12:23:08.594Z,32.57
2023-08-12T12:24:10.795Z,32.63
2023-08-12T12:25:16.663Z,32.75
2023-08-12T12:26:18.381Z,32.74
2023-08-12T12:27:20.211Z,32.73
2023-08-12T12:28:21.968Z,32.72
2023-08-12T12:29:24.105Z,32.72
2023-08-12T12:30:25.930Z,32.68
2023-08-12T12:31:27.738Z,32.67
2023-08-12T12:32:30.862Z,32.68
2023-08-12T12:33:32.824Z,32.68
2023-08-12T12:34:34.871Z,32.65
2023-08-12T12:35:47.770Z,32.62
2023-08-12T12:36:58.500Z,32.64
2023-08-12T12:38:00.439Z,32.70
2023-08-12T12:39:03.355Z,32.71
2023-08-12T12:40:06.820Z,32.72
2023-08-12T12:41:08.584Z,32.73
2023-08-12T12:42:12.016Z,32.74
2023-08-12T12:43:14.151Z,32.74
2023-08-12T12:44:15.983Z,32.82
2023-08-12T12:45:17.900Z,32.89
2023-08-12T12:46:19.818Z,32.91
2023-08-12T12:47:21.583Z,32.94
2023-08-12T12:48:23.471Z,32.96
2023-08-12T12:49:25.260Z,33.00
2023-08-12T12:50:27.314Z,33.09
2023-08-12T12:51:29.489Z,33.13
2023-08-12T12:52:31.374Z,33.18
2023-08-12T12:53:33.235Z,33.22
2023-08-12T12:54:34.957Z,33.26
2023-08-12T12:55:36.798Z,33.28
2023-08-12T12:56:38.563Z,33.34
2023-08-12T12:57:40.655Z,33.39
2023-08-12T12:58:42.452Z,33.44
2023-08-12T12:59:44.591Z,33.48
2023-08-12T13:00:46.594Z,33.50
2023-08-12T13:01:48.362Z,33.51
2023-08-12T13:02:50.249Z,33.54
2023-08-12T13:03:52.052Z,33.56
2023-08-12T13:04:54.213Z,33.55
2023-08-12T13:05:56.021Z,33.57
2023-08-12T13:06:57.825Z,33.60
2023-08-12T13:07:59.689Z,33.63
2023-08-12T13:09:01.890Z,33.64
2023-08-12T13:10:04.109Z,33.66
2023-08-12T13:11:06.204Z,33.72
2023-08-12T13:12:08.008Z,33.78
2023-08-12T13:13:09.924Z,33.80
2023-08-12T13:14:11.697Z,33.81
2023-08-12T13:15:13.853Z,33.82
2023-08-12T13:16:16.179Z,33.84
2023-08-12T13:17:17.993Z,33.84
2023-08-12T13:18:19.812Z,33.87
2023-08-12T13:19:21.619Z,33.89
2023-08-12T13:20:23.417Z,33.91
2023-08-12T13:21:28.873Z,33.92
2023-08-12T13:22:30.632Z,33.92
2023-08-12T13:23:32.509Z,33.93
2023-08-12T13:24:34.625Z,33.94
2023-08-12T13:25:37.064Z,33.94
2023-08-12T13:26:38.870Z,33.95
2023-08-12T13:27:40.733Z,33.99
2023-08-12T13:28:42.885Z,34.02
2023-08-12T13:29:44.706Z,34.05
2023-08-12T13:30:46.908Z,34.07
2023-08-12T13:31:48.736Z,34.12
2023-08-12T13:32:50.530Z,34.16